• Join FlightAware (Why Join?)
  • Login
  • US Flag 
02:30AM EST


 

Airport Tracker/Info


-or-


 

Live Flight TrackerFlight Track Log ✈ N4508X ✈ 28-Sep-2013 ✈ KBED - KHPN

Flight Track Log - Related Links

Times and Time Zones

All times are in EDT time to prevent confusion due to time zone crossing. See the N4508X flight status page for this flight to view local times or setup timezone preferences in your user account.

Time Position Orientation Groundspeed Altitude Reporting Facility
EDT Latitude Longitude Course Direction KTS MPH feet Rate Location/Type
04:00PM 42.1839 -71.7983 233° Southwest 126 145 4,000  Level Boston Center
04:01PM 42.1611 -71.8322 228° Southwest 126 145 3,900 -120 Descending Boston Center
04:02PM 42.1383 -71.8689 230° Southwest 121 139 3,800 -60 Descending Boston Center
04:03PM 42.1178 -71.9000 228° Southwest 122 140 3,800  Level Boston Center
04:04PM 42.0992 -71.9364 235° Southwest 119 137 3,900  Climbing Boston Center
04:05PM 42.0196 -72.0867 233° Southwest  Level Estimated
04:05PM 42.0786 -71.9731 233° Southwest 123 142 3,900  Level Boston Center
04:06PM 42.0578 -72.0094 232° Southwest 121 139 3,900  Level Boston Center
04:07PM 42.0350 -72.0461 230° Southwest 117 135 3,900  Level Boston Center
04:08PM 42.0142 -72.0825 232° Southwest 120 138 3,900  Level Boston Center
04:09PM 41.9914 -72.1244 234° Southwest 118 136 3,900  Level Boston Center
04:10PM 41.9667 -72.1636 230° Southwest 122 140 3,900 -60 Level Boston Center
04:11PM 41.9478 -72.1972 233° Southwest 117 135 3,800  Descending Boston Center
04:12PM 41.9272 -72.2336 233° Southwest 119 137 3,900  Climbing Boston Center
04:13PM 41.9083 -72.2728 237° Southwest 122 140 3,800  Descending Boston Center
04:14PM 41.8917 -72.2950 225° Southwest 118 136 3,900  Climbing Boston Center
04:15PM 41.8689 -72.3342 232° Southwest 119 137 3,900  Level Boston Center
04:16PM 41.8503 -72.3703 235° Southwest 118 136 3,900  Level Boston Center
04:17PM 41.8272 -72.4039 227° Southwest 120 138 3,900  Level Boston Center
04:18PM 41.8064 -72.4372 230° Southwest 119 137 3,900  Level Boston Center
04:19PM 41.7878 -72.4736 236° Southwest 118 136 3,900 -60 Level Boston Center
04:20PM 41.7647 -72.5097 229° Southwest 122 140 3,800 -60 Descending Boston Center
04:21PM 41.7458 -72.5403 230° Southwest 119 137 3,800  Level Boston Center
04:22PM 41.7250 -72.5792 234° Southwest 113 130 3,900 60 Climbing Boston Center
04:23PM 41.7000 -72.6153 227° Southwest 120 138 4,000  Climbing Boston Center
04:24PM 41.6792 -72.6542 234° Southwest 121 139 3,900 -60 Descending Boston Center
04:25PM 41.6603 -72.6903 235° Southwest 123 142 3,900  Level Boston Center
04:26PM 41.6394 -72.7289 234° Southwest 120 138 4,000  Climbing Boston Center
04:27PM 41.6183 -72.7622 230° Southwest 117 135 3,900 -60 Descending Boston Center
04:28PM 41.6036 -72.7872 232° Southwest 116 133 3,900 -60 Level Boston Center
04:29PM 41.5828 -72.8203 230° Southwest 117 135 3,800 -60 Descending Boston Center
04:30PM 41.5597 -72.8589 231° Southwest 117 135 3,800  Level Boston Center
04:32PM 41.5333 -72.9000 229° Southwest 122 140 3,800  Level New York TRACON
04:33PM 41.5000 -72.9500 228° Southwest 121 139 3,800  Level New York TRACON
04:34PM 41.4833 -72.9833 236° Southwest 123 142 3,900  Climbing New York TRACON
04:35PM 41.4667 -73.0167 236° Southwest 118 136 3,800 -60 Descending New York TRACON
04:36PM 41.4500 -73.0500 236° Southwest 119 137 3,800  Level New York TRACON
04:37PM 41.4333 -73.0833 236° Southwest 120 138 3,800  Level New York TRACON
04:38PM 41.4000 -73.1167 217° Southwest 120 138 3,800  Level New York TRACON
04:39PM 41.3833 -73.1500 236° Southwest 122 140 3,800 -60 Level New York TRACON
04:40PM 41.3667 -73.1833 236° Southwest 119 137 3,700 -60 Descending New York TRACON
04:41PM 41.3333 -73.2167 217° Southwest 118 136 3,700  Level New York TRACON
04:42PM 41.3167 -73.2500 236° Southwest 118 136 3,700  Level New York TRACON
04:43PM 41.3000 -73.2833 236° Southwest 117 135 3,700  Level New York TRACON
04:44PM 41.2833 -73.3167 236° Southwest 116 133 3,700  Level New York TRACON
04:45PM 41.2667 -73.3667 246° West 120 138 3,700  Level New York TRACON
04:46PM 41.2500 -73.3833 217° Southwest 124 143 3,700 -180 Level New York TRACON
04:47PM 41.2167 -73.4333 228° Southwest 128 147 3,400 -240 Descending New York TRACON
04:48PM 41.2000 -73.4667 236° Southwest 123 142 3,300 -300 Descending New York TRACON
04:49PM 41.1833 -73.5000 236° Southwest 124 143 2,900 -540 Descending New York TRACON
04:50PM 41.1667 -73.5333 236° Southwest 123 142 2,300 -600 Descending New York TRACON
04:51PM 41.1500 -73.5667 236° Southwest 119 137 1,800 -420 Descending New York TRACON
04:52PM 41.1333 -73.6167 246° West 110 127 1,500 -240 Descending New York TRACON
04:53PM 41.1167 -73.6333 217° Southwest 102 117 1,400 -60 Descending New York TRACON
04:54PM 41.1000 -73.6667 236° Southwest 85 98 1,400  Level New York TRACON
04:55PM 41.1000 -73.7000 270° West 96 110 1,400 -180 Level New York TRACON
04:56PM 41.1000 -73.7333 270° West 82 94 1,100 -300 Descending New York TRACON
04:57PM 41.0833 -73.7167 143° Southeast 68 78 800 -300 Descending New York TRACON
04:59PM 41.0667 -73.7000 236° Southwest  Level FlightAware Approximate
05:06PM 41.0669 -73.7076 236° Southwest  Level Estimated